createdAt,value
2022-07-25T00:12:45.649Z,9.30
2022-07-25T00:27:37.228Z,10.21
2022-07-25T00:42:28.651Z,9.25
2022-07-25T00:57:18.804Z,9.16
2022-07-25T01:12:09.651Z,10.19
2022-07-25T01:27:01.266Z,10.27
2022-07-25T01:41:52.475Z,9.52
2022-07-25T01:56:46.928Z,10.40
2022-07-25T02:11:36.283Z,9.80
2022-07-25T02:26:27.357Z,9.98
2022-07-25T02:41:19.045Z,9.46
2022-07-25T02:56:11.477Z,9.69
2022-07-25T03:11:03.536Z,10.84
2022-07-25T03:25:55.529Z,12.32
2022-07-25T03:40:47.357Z,11.25
2022-07-25T03:55:39.624Z,11.82
2022-07-25T04:10:31.057Z,11.06
2022-07-25T04:25:22.722Z,11.26
2022-07-25T04:40:14.835Z,12.14
2022-07-25T04:55:08.247Z,10.74
2022-07-25T05:10:00.502Z,10.63
2022-07-25T05:24:53.044Z,10.43
2022-07-25T05:39:45.440Z,9.63
2022-07-25T05:54:37.170Z,9.24
2022-07-25T06:09:29.469Z,9.46
2022-07-25T06:24:22.908Z,9.48
2022-07-25T06:39:16.425Z,9.34
2022-07-25T06:54:09.397Z,9.73
2022-07-25T07:23:55.434Z,8.94
2022-07-25T07:38:48.598Z,9.49
2022-07-25T08:23:51.120Z,9.47
2022-07-25T08:38:44.125Z,8.93
2022-07-25T08:53:36.835Z,9.08
2022-07-25T09:08:30.655Z,8.88
2022-07-25T09:23:32.822Z,8.78
2022-07-25T09:38:30.827Z,9.04
2022-07-25T09:53:23.839Z,8.49
2022-07-25T10:08:16.659Z,8.53
2022-07-25T10:23:24.392Z,7.78
2022-07-25T10:38:25.780Z,8.70
2022-07-25T10:53:33.059Z,8.12
2022-07-25T11:08:30.483Z,8.16
2022-07-25T11:23:23.681Z,8.34
2022-07-25T11:38:16.524Z,7.50
2022-07-25T11:53:10.368Z,7.88
2022-07-25T12:08:13.307Z,8.18
2022-07-25T12:23:10.818Z,8.16
2022-07-25T12:38:03.849Z,7.89
2022-07-25T12:52:56.551Z,8.53
2022-07-25T13:07:48.538Z,8.48
2022-07-25T13:22:41.357Z,8.73
2022-07-25T13:37:33.464Z,8.41
2022-07-25T13:52:27.057Z,8.10
2022-07-25T14:07:20.191Z,8.34
2022-07-25T14:22:11.464Z,8.27
2022-07-25T14:37:04.228Z,7.89
2022-07-25T14:51:55.495Z,7.52
2022-07-25T15:06:50.905Z,6.39
2022-07-25T15:21:46.075Z,6.16
2022-07-25T15:36:38.670Z,5.94
2022-07-25T15:51:33.363Z,6.39
2022-07-25T16:06:24.193Z,6.04
2022-07-25T16:21:18.071Z,5.68
2022-07-25T16:36:09.214Z,5.62
2022-07-25T16:51:05.755Z,6.13
2022-07-25T17:05:53.041Z,5.66
2022-07-25T17:20:44.586Z,5.57
2022-07-25T17:35:35.530Z,4.38
2022-07-25T17:50:29.256Z,3.58
2022-07-25T18:05:18.047Z,3.74
2022-07-25T18:20:19.412Z,3.89
2022-07-25T18:35:10.953Z,2.81
2022-07-25T18:50:01.857Z,2.49
2022-07-25T19:04:52.990Z,2.72
2022-07-25T19:19:44.670Z,2.48
2022-07-25T19:34:35.257Z,2.20
2022-07-25T19:49:27.210Z,2.69
2022-07-25T20:04:19.513Z,2.71
2022-07-25T20:34:16.227Z,2.41
2022-07-25T20:49:11.036Z,2.46
2022-07-25T21:04:07.574Z,2.03
2022-07-25T21:18:57.449Z,2.39
2022-07-25T21:33:48.901Z,2.16
2022-07-25T21:48:58.213Z,1.98
2022-07-25T22:18:49.111Z,2.09
2022-07-25T22:33:40.732Z,1.96
2022-07-25T22:48:32.647Z,1.91
2022-07-25T23:03:24.829Z,1.33
2022-07-25T23:18:16.959Z,1.30
2022-07-25T23:33:08.770Z,1.40
2022-07-25T23:47:59.736Z,1.20
